»·PEaware :: WAT306 P20-KRYN

WAT306 :: P20-KRYN

FLIGHT INFORMATION

Flight Status: Arrived
Operator:
Walker Air Transport
More flights by this operator :: More flights under this callsign
Pilot: Ethan S. (29221)
Aircraft: SOCATA TBM-900
(TBM9)
More flights by this aircraft type
Origin: P20 Avi Suquilla
United States
Destination: KRYN Ryan
United States
More flights between these airports :: More routes between these airports
Route: NIDSE
File this flight plan on PilotEdge
Remarks:
Altitude:
(Current/Filed)
17,500ft
Speed:
(Current/Filed)
280kts
Departed: 12-Oct-20 08:38 AM
Arrived: 12-Oct-20 09:28 AM
Distance/Time
Traveled:
197nm/0:50
Distance/Time
To Go:
Arrived

Flight Plot

Page will automatically refresh every two minutes.

Flight plan parsing failed; only flown route is shown


Map Options




Map Legend


Flown Route
Filed Route
Departure Airport
Arrival Airport
Navaid (VOR, NDB)
Fix

Horizontal Profiles

Position Reports

Time Latitude Longitude Heading Altitude Ground
Speed
12-Oct-20 08:36 34.145181 -114.270631 26 449ft 64kts
12-Oct-20 08:38 34.150798 -114.235636 143 2355ft 135kts
12-Oct-20 08:38 34.124739 -114.213646 145 4145ft 136kts
12-Oct-20 08:39 34.092108 -114.187159 145 6268ft 144kts
12-Oct-20 08:40 34.058664 -114.160295 145 8909ft 143kts
12-Oct-20 08:41 34.015163 -114.125372 145 9560ft 225kts
12-Oct-20 08:42 33.956624 -114.078577 145 9530ft 249kts
12-Oct-20 08:43 33.894904 -114.029347 145 9528ft 253kts
12-Oct-20 08:44 33.846073 -113.963582 124 9521ft 253kts
12-Oct-20 08:45 33.803978 -113.892015 124 9511ft 253kts
12-Oct-20 08:46 33.761913 -113.820703 125 9501ft 253kts
12-Oct-20 08:47 33.719947 -113.749704 125 9500ft 253kts
12-Oct-20 08:48 33.687814 -113.695447 125 13072ft 151kts
12-Oct-20 08:49 33.663753 -113.654966 124 15683ft 150kts
12-Oct-20 08:50 33.638601 -113.612565 122 17568ft 182kts
12-Oct-20 08:51 33.601816 -113.550484 123 17543ft 248kts
12-Oct-20 08:52 33.559346 -113.479177 123 17537ft 263kts
12-Oct-20 08:53 33.515507 -113.405724 123 17535ft 266kts
12-Oct-20 08:54 33.471245 -113.331696 123 17537ft 267kts
12-Oct-20 08:55 33.427384 -113.258474 124 17537ft 267kts
12-Oct-20 08:56 33.383029 -113.184576 124 17537ft 268kts
12-Oct-20 08:57 33.338647 -113.110779 124 17536ft 268kts
12-Oct-20 08:58 33.293935 -113.036567 124 17278ft 277kts
12-Oct-20 08:59 33.248388 -112.961239 122 17433ft 263kts
12-Oct-20 09:00 33.203652 -112.887206 122 17522ft 276kts
12-Oct-20 09:01 33.156551 -112.809436 124 17512ft 287kts
12-Oct-20 09:02 33.107867 -112.729359 124 17502ft 292kts
12-Oct-20 09:03 33.058677 -112.648525 126 17502ft 293kts
12-Oct-20 09:04 33.009475 -112.567919 127 17501ft 290kts
12-Oct-20 09:05 32.959880 -112.487240 125 17504ft 280kts
12-Oct-20 09:06 32.913320 -112.410940 125 17495ft 267kts
12-Oct-20 09:07 32.868098 -112.337297 126 17501ft 265kts
12-Oct-20 09:08 32.822661 -112.263445 126 17512ft 265kts
12-Oct-20 09:09 32.777226 -112.189747 126 17528ft 265kts
12-Oct-20 09:10 32.731833 -112.116260 126 17545ft 265kts
12-Oct-20 09:11 32.686751 -112.043421 126 17555ft 265kts
12-Oct-20 09:12 32.642339 -111.971801 126 17555ft 265kts
12-Oct-20 09:13 32.596659 -111.898282 126 17554ft 265kts
12-Oct-20 09:14 32.550726 -111.824495 126 17444ft 266kts
12-Oct-20 09:15 32.504695 -111.750704 126 17449ft 265kts
12-Oct-20 09:16 32.457891 -111.675792 126 16663ft 287kts
12-Oct-20 09:17 32.406996 -111.594532 126 14793ft 296kts
12-Oct-20 09:18 32.356481 -111.514105 127 12915ft 291kts
12-Oct-20 09:19 32.294838 -111.449824 139 10891ft 256kts
12-Oct-20 09:20 32.237406 -111.410970 159 8846ft 212kts
12-Oct-20 09:21 32.183921 -111.382537 134 7023ft 198kts
12-Oct-20 09:22 32.144802 -111.335686 134 5269ft 193kts
12-Oct-20 09:23 32.109732 -111.288214 105 3979ft 169kts
12-Oct-20 09:24 32.120031 -111.246627 72 3585ft 93kts
12-Oct-20 09:25 32.128391 -111.218097 72 3034ft 88kts
12-Oct-20 09:26 32.136916 -111.190024 74 2599ft 87kts
12-Oct-20 09:27 32.141460 -111.172448 204 2402ft 9kts
12-Oct-20 09:28 32.139046 -111.173424 160 2406ft 13kts
12-Oct-20 09:29 32.137349 -111.173591 257 2412ft 0kts
12-Oct-20 09:30 32.137349 -111.173591 257 2412ft 0kts
12-Oct-20 09:31 32.137349 -111.173591 257 2412ft 0kts

Navigation Log

Ident Type
Flight plan parsing failed, navigation log unavailable